sensor_id;sensor_type;location;lat;lon;timestamp;P1;durP1;ratioP1;P2;durP2;ratioP2
60885;SDS011;46736;41.654;-8.438;2022-07-23T00:00:37;2.92;;;2.72;;
60885;SDS011;46736;41.654;-8.438;2022-07-23T00:02:38;4.70;;;2.65;;
60885;SDS011;46736;41.654;-8.438;2022-07-23T00:04:39;4.40;;;3.42;;
60885;SDS011;46736;41.654;-8.438;2022-07-23T00:06:39;3.38;;;2.45;;
60885;SDS011;46736;41.654;-8.438;2022-07-23T00:08:40;3.72;;;2.70;;
60885;SDS011;46736;41.654;-8.438;2022-07-23T00:10:44;3.40;;;3.10;;
60885;SDS011;46736;41.654;-8.438;2022-07-23T00:12:44;3.00;;;2.80;;
60885;SDS011;46736;41.654;-8.438;2022-07-23T00:14:45;3.22;;;2.90;;
60885;SDS011;46736;41.654;-8.438;2022-07-23T00:16:46;8.45;;;2.70;;
60885;SDS011;46736;41.654;-8.438;2022-07-23T00:18:46;8.80;;;3.13;;
60885;SDS011;46736;41.654;-8.438;2022-07-23T00:20:47;3.65;;;2.50;;
60885;SDS011;46736;41.654;-8.438;2022-07-23T00:22:49;2.65;;;2.45;;
60885;SDS011;46736;41.654;-8.438;2022-07-23T00:24:51;5.88;;;2.88;;
60885;SDS011;46736;41.654;-8.438;2022-07-23T00:26:52;6.80;;;2.75;;
60885;SDS011;46736;41.654;-8.438;2022-07-23T00:28:52;3.03;;;2.83;;
60885;SDS011;46736;41.654;-8.438;2022-07-23T00:30:54;3.28;;;2.58;;
60885;SDS011;46736;41.654;-8.438;2022-07-23T00:32:56;2.65;;;2.45;;
60885;SDS011;46736;41.654;-8.438;2022-07-23T00:34:58;3.15;;;2.17;;
60885;SDS011;46736;41.654;-8.438;2022-07-23T00:36:59;3.88;;;3.58;;
60885;SDS011;46736;41.654;-8.438;2022-07-23T00:39:00;2.85;;;2.58;;
60885;SDS011;46736;41.654;-8.438;2022-07-23T00:41:01;4.95;;;3.25;;
60885;SDS011;46736;41.654;-8.438;2022-07-23T00:43:02;3.15;;;2.72;;
60885;SDS011;46736;41.654;-8.438;2022-07-23T00:45:04;6.53;;;3.05;;
60885;SDS011;46736;41.654;-8.438;2022-07-23T00:47:06;2.63;;;2.42;;
60885;SDS011;46736;41.654;-8.438;2022-07-23T00:49:07;3.25;;;2.00;;
60885;SDS011;46736;41.654;-8.438;2022-07-23T00:51:08;3.67;;;3.38;;
60885;SDS011;46736;41.654;-8.438;2022-07-23T00:53:09;2.40;;;2.20;;
60885;SDS011;46736;41.654;-8.438;2022-07-23T00:55:10;4.90;;;2.85;;
60885;SDS011;46736;41.654;-8.438;2022-07-23T00:57:12;2.92;;;2.72;;
60885;SDS011;46736;41.654;-8.438;2022-07-23T00:59:13;3.08;;;2.88;;
60885;SDS011;46736;41.654;-8.438;2022-07-23T01:01:14;2.75;;;2.55;;
60885;SDS011;46736;41.654;-8.438;2022-07-23T01:03:28;3.50;;;3.08;;
60885;SDS011;46736;41.654;-8.438;2022-07-23T01:05:29;3.17;;;3.00;;
60885;SDS011;46736;41.654;-8.438;2022-07-23T01:07:30;10.63;;;3.13;;
60885;SDS011;46736;41.654;-8.438;2022-07-23T01:09:31;2.60;;;2.40;;
60885;SDS011;46736;41.654;-8.438;2022-07-23T01:11:33;3.20;;;3.00;;
60885;SDS011;46736;41.654;-8.438;2022-07-23T01:13:42;5.60;;;2.75;;
60885;SDS011;46736;41.654;-8.438;2022-07-23T01:20:34;3.63;;;2.95;;
60885;SDS011;46736;41.654;-8.438;2022-07-23T01:22:35;3.00;;;2.78;;
60885;SDS011;46736;41.654;-8.438;2022-07-23T01:26:46;2.05;;;1.95;;
60885;SDS011;46736;41.654;-8.438;2022-07-23T01:28:48;5.20;;;2.83;;
60885;SDS011;46736;41.654;-8.438;2022-07-23T01:30:49;3.22;;;2.95;;
60885;SDS011;46736;41.654;-8.438;2022-07-23T01:32:50;2.78;;;2.58;;
60885;SDS011;46736;41.654;-8.438;2022-07-23T01:34:51;3.05;;;2.67;;
60885;SDS011;46736;41.654;-8.438;2022-07-23T01:36:55;5.13;;;2.47;;
60885;SDS011;46736;41.654;-8.438;2022-07-23T01:41:29;4.10;;;3.72;;
60885;SDS011;46736;41.654;-8.438;2022-07-23T01:43:30;5.38;;;3.53;;
60885;SDS011;46736;41.654;-8.438;2022-07-23T01:45:31;4.45;;;3.25;;
60885;SDS011;46736;41.654;-8.438;2022-07-23T01:47:32;3.03;;;2.83;;
60885;SDS011;46736;41.654;-8.438;2022-07-23T01:49:33;2.42;;;2.28;;
60885;SDS011;46736;41.654;-8.438;2022-07-23T01:51:49;3.03;;;2.75;;
60885;SDS011;46736;41.654;-8.438;2022-07-23T01:54:14;3.78;;;3.47;;
60885;SDS011;46736;41.654;-8.438;2022-07-23T01:56:15;4.53;;;2.83;;
60885;SDS011;46736;41.654;-8.438;2022-07-23T01:58:15;4.93;;;2.38;;
60885;SDS011;46736;41.654;-8.438;2022-07-23T02:00:16;2.92;;;2.72;;
60885;SDS011;46736;41.654;-8.438;2022-07-23T02:02:21;5.03;;;3.08;;
60885;SDS011;46736;41.654;-8.438;2022-07-23T02:04:24;6.15;;;3.15;;
60885;SDS011;46736;41.654;-8.438;2022-07-23T02:08:47;8.25;;;3.08;;
60885;SDS011;46736;41.654;-8.438;2022-07-23T02:10:49;5.38;;;3.53;;
60885;SDS011;46736;41.654;-8.438;2022-07-23T02:12:51;4.35;;;3.90;;
60885;SDS011;46736;41.654;-8.438;2022-07-23T02:14:52;5.57;;;4.43;;
60885;SDS011;46736;41.654;-8.438;2022-07-23T02:16:53;3.83;;;3.05;;
60885;SDS011;46736;41.654;-8.438;2022-07-23T02:18:57;5.57;;;5.07;;
60885;SDS011;46736;41.654;-8.438;2022-07-23T02:20:58;12.82;;;4.47;;
60885;SDS011;46736;41.654;-8.438;2022-07-23T02:25:24;4.97;;;4.57;;
60885;SDS011;46736;41.654;-8.438;2022-07-23T02:27:30;3.35;;;3.05;;
60885;SDS011;46736;41.654;-8.438;2022-07-23T02:29:32;5.55;;;3.08;;
60885;SDS011;46736;41.654;-8.438;2022-07-23T02:31:33;3.90;;;3.58;;
60885;SDS011;46736;41.654;-8.438;2022-07-23T02:33:33;6.55;;;4.15;;
60885;SDS011;46736;41.654;-8.438;2022-07-23T02:35:34;4.20;;;3.72;;
60885;SDS011;46736;41.654;-8.438;2022-07-23T02:37:36;4.03;;;3.72;;
60885;SDS011;46736;41.654;-8.438;2022-07-23T02:39:37;8.98;;;3.65;;
60885;SDS011;46736;41.654;-8.438;2022-07-23T02:41:38;4.50;;;3.72;;
60885;SDS011;46736;41.654;-8.438;2022-07-23T02:43:38;7.03;;;4.55;;
60885;SDS011;46736;41.654;-8.438;2022-07-23T02:45:39;5.05;;;4.20;;
60885;SDS011;46736;41.654;-8.438;2022-07-23T02:47:49;5.05;;;3.97;;
60885;SDS011;46736;41.654;-8.438;2022-07-23T02:49:49;5.13;;;4.63;;
60885;SDS011;46736;41.654;-8.438;2022-07-23T02:51:50;5.05;;;3.60;;
60885;SDS011;46736;41.654;-8.438;2022-07-23T02:53:51;4.03;;;3.72;;
60885;SDS011;46736;41.654;-8.438;2022-07-23T02:58:08;4.18;;;3.58;;
60885;SDS011;46736;41.654;-8.438;2022-07-23T03:02:47;5.68;;;3.72;;
60885;SDS011;46736;41.654;-8.438;2022-07-23T03:04:49;4.13;;;3.78;;
60885;SDS011;46736;41.654;-8.438;2022-07-23T03:06:50;5.57;;;3.63;;
60885;SDS011;46736;41.654;-8.438;2022-07-23T03:08:51;4.40;;;4.00;;
60885;SDS011;46736;41.654;-8.438;2022-07-23T03:10:51;3.65;;;3.40;;
60885;SDS011;46736;41.654;-8.438;2022-07-23T03:12:52;8.75;;;3.25;;
60885;SDS011;46736;41.654;-8.438;2022-07-23T03:14:53;5.75;;;4.18;;
60885;SDS011;46736;41.654;-8.438;2022-07-23T03:16:55;3.63;;;3.20;;
60885;SDS011;46736;41.654;-8.438;2022-07-23T03:18:56;3.58;;;3.38;;
60885;SDS011;46736;41.654;-8.438;2022-07-23T03:20:56;8.27;;;4.30;;
60885;SDS011;46736;41.654;-8.438;2022-07-23T03:22:57;5.05;;;2.53;;
60885;SDS011;46736;41.654;-8.438;2022-07-23T03:24:58;5.57;;;5.07;;
60885;SDS011;46736;41.654;-8.438;2022-07-23T03:27:03;5.03;;;4.10;;
60885;SDS011;46736;41.654;-8.438;2022-07-23T03:29:03;4.97;;;4.00;;
60885;SDS011;46736;41.654;-8.438;2022-07-23T03:31:05;4.32;;;3.58;;
60885;SDS011;46736;41.654;-8.438;2022-07-23T03:33:06;4.82;;;3.95;;
60885;SDS011;46736;41.654;-8.438;2022-07-23T03:37:48;4.25;;;3.47;;
60885;SDS011;46736;41.654;-8.438;2022-07-23T03:39:49;4.30;;;4.00;;
60885;SDS011;46736;41.654;-8.438;2022-07-23T03:41:49;7.45;;;4.20;;
60885;SDS011;46736;41.654;-8.438;2022-07-23T03:43:50;4.65;;;3.53;;
60885;SDS011;46736;41.654;-8.438;2022-07-23T03:45:51;5.20;;;3.58;;
60885;SDS011;46736;41.654;-8.438;2022-07-23T03:47:52;3.60;;;3.30;;
60885;SDS011;46736;41.654;-8.438;2022-07-23T03:52:03;4.75;;;3.97;;
60885;SDS011;46736;41.654;-8.438;2022-07-23T03:54:05;5.10;;;4.60;;
60885;SDS011;46736;41.654;-8.438;2022-07-23T04:00:31;4.03;;;3.72;;
60885;SDS011;46736;41.654;-8.438;2022-07-23T04:02:32;6.07;;;4.20;;
60885;SDS011;46736;41.654;-8.438;2022-07-23T04:07:05;3.63;;;3.33;;
60885;SDS011;46736;41.654;-8.438;2022-07-23T04:09:08;5.03;;;3.75;;
60885;SDS011;46736;41.654;-8.438;2022-07-23T04:11:08;4.43;;;3.97;;
60885;SDS011;46736;41.654;-8.438;2022-07-23T04:13:09;3.92;;;3.25;;
60885;SDS011;46736;41.654;-8.438;2022-07-23T04:15:11;2.45;;;2.35;;
60885;SDS011;46736;41.654;-8.438;2022-07-23T04:17:12;3.50;;;3.20;;
60885;SDS011;46736;41.654;-8.438;2022-07-23T04:19:13;4.05;;;3.47;;
60885;SDS011;46736;41.654;-8.438;2022-07-23T04:21:26;2.35;;;2.15;;
60885;SDS011;46736;41.654;-8.438;2022-07-23T04:23:27;4.43;;;4.03;;
60885;SDS011;46736;41.654;-8.438;2022-07-23T04:28:21;4.35;;;3.55;;
60885;SDS011;46736;41.654;-8.438;2022-07-23T04:30:22;4.13;;;3.58;;
60885;SDS011;46736;41.654;-8.438;2022-07-23T04:32:23;4.55;;;3.95;;
60885;SDS011;46736;41.654;-8.438;2022-07-23T04:34:25;2.70;;;2.50;;
60885;SDS011;46736;41.654;-8.438;2022-07-23T04:36:27;4.75;;;4.35;;
60885;SDS011;46736;41.654;-8.438;2022-07-23T04:38:28;6.70;;;4.00;;
60885;SDS011;46736;41.654;-8.438;2022-07-23T04:40:33;5.82;;;4.95;;
60885;SDS011;46736;41.654;-8.438;2022-07-23T04:42:34;4.90;;;4.35;;
60885;SDS011;46736;41.654;-8.438;2022-07-23T04:44:35;3.40;;;3.10;;
60885;SDS011;46736;41.654;-8.438;2022-07-23T04:46:39;3.92;;;3.55;;
60885;SDS011;46736;41.654;-8.438;2022-07-23T04:54:43;3.88;;;3.67;;
60885;SDS011;46736;41.654;-8.438;2022-07-23T04:59:17;4.63;;;4.15;;
60885;SDS011;46736;41.654;-8.438;2022-07-23T05:01:20;3.95;;;3.60;;
60885;SDS011;46736;41.654;-8.438;2022-07-23T05:03:21;5.18;;;2.88;;
60885;SDS011;46736;41.654;-8.438;2022-07-23T05:05:22;6.95;;;4.30;;
60885;SDS011;46736;41.654;-8.438;2022-07-23T05:07:24;6.10;;;3.83;;
60885;SDS011;46736;41.654;-8.438;2022-07-23T05:09:26;10.10;;;4.43;;
60885;SDS011;46736;41.654;-8.438;2022-07-23T05:13:30;4.05;;;3.50;;
60885;SDS011;46736;41.654;-8.438;2022-07-23T05:15:31;7.10;;;3.17;;
60885;SDS011;46736;41.654;-8.438;2022-07-23T05:17:32;5.82;;;5.25;;
60885;SDS011;46736;41.654;-8.438;2022-07-23T05:19:43;4.40;;;4.10;;
60885;SDS011;46736;41.654;-8.438;2022-07-23T05:21:45;4.85;;;4.00;;
60885;SDS011;46736;41.654;-8.438;2022-07-23T05:28:31;4.05;;;3.80;;
60885;SDS011;46736;41.654;-8.438;2022-07-23T05:38:36;10.15;;;3.88;;
60885;SDS011;46736;41.654;-8.438;2022-07-23T05:40:53;4.53;;;3.83;;
60885;SDS011;46736;41.654;-8.438;2022-07-23T05:45:27;3.50;;;3.20;;
60885;SDS011;46736;41.654;-8.438;2022-07-23T05:47:29;3.95;;;3.67;;
60885;SDS011;46736;41.654;-8.438;2022-07-23T05:49:40;5.25;;;4.00;;
60885;SDS011;46736;41.654;-8.438;2022-07-23T05:52:05;5.43;;;3.10;;
60885;SDS011;46736;41.654;-8.438;2022-07-23T05:54:27;4.55;;;3.72;;
60885;SDS011;46736;41.654;-8.438;2022-07-23T05:56:28;4.93;;;3.40;;
60885;SDS011;46736;41.654;-8.438;2022-07-23T05:58:29;6.18;;;3.80;;
60885;SDS011;46736;41.654;-8.438;2022-07-23T06:00:31;3.85;;;3.50;;
60885;SDS011;46736;41.654;-8.438;2022-07-23T06:02:32;3.70;;;3.40;;
60885;SDS011;46736;41.654;-8.438;2022-07-23T06:06:50;4.85;;;4.45;;
60885;SDS011;46736;41.654;-8.438;2022-07-23T06:08:50;4.00;;;3.00;;
60885;SDS011;46736;41.654;-8.438;2022-07-23T06:13:16;5.35;;;5.03;;
60885;SDS011;46736;41.654;-8.438;2022-07-23T06:15:19;6.25;;;4.28;;
60885;SDS011;46736;41.654;-8.438;2022-07-23T06:17:20;6.13;;;5.60;;
60885;SDS011;46736;41.654;-8.438;2022-07-23T06:19:21;4.35;;;3.95;;
60885;SDS011;46736;41.654;-8.438;2022-07-23T06:21:23;5.47;;;4.85;;
60885;SDS011;46736;41.654;-8.438;2022-07-23T06:23:24;12.98;;;5.18;;
60885;SDS011;46736;41.654;-8.438;2022-07-23T06:25:44;5.55;;;5.07;;
60885;SDS011;46736;41.654;-8.438;2022-07-23T06:27:45;7.45;;;6.03;;
60885;SDS011;46736;41.654;-8.438;2022-07-23T06:29:47;6.20;;;5.20;;
60885;SDS011;46736;41.654;-8.438;2022-07-23T06:31:48;6.28;;;4.70;;
60885;SDS011;46736;41.654;-8.438;2022-07-23T06:33:49;6.13;;;5.25;;
60885;SDS011;46736;41.654;-8.438;2022-07-23T06:35:50;5.57;;;5.10;;
60885;SDS011;46736;41.654;-8.438;2022-07-23T06:37:51;6.72;;;5.10;;
60885;SDS011;46736;41.654;-8.438;2022-07-23T06:39:51;6.75;;;6.13;;
60885;SDS011;46736;41.654;-8.438;2022-07-23T06:41:52;8.63;;;5.30;;
60885;SDS011;46736;41.654;-8.438;2022-07-23T06:43:53;6.60;;;5.03;;
60885;SDS011;46736;41.654;-8.438;2022-07-23T06:45:56;8.25;;;5.78;;
60885;SDS011;46736;41.654;-8.438;2022-07-23T06:47:57;11.25;;;6.45;;
60885;SDS011;46736;41.654;-8.438;2022-07-23T06:49:58;7.32;;;6.03;;
60885;SDS011;46736;41.654;-8.438;2022-07-23T06:52:00;10.93;;;6.82;;
60885;SDS011;46736;41.654;-8.438;2022-07-23T06:56:35;6.03;;;5.47;;
60885;SDS011;46736;41.654;-8.438;2022-07-23T06:58:35;6.53;;;4.78;;
60885;SDS011;46736;41.654;-8.438;2022-07-23T07:00:36;7.20;;;5.78;;
60885;SDS011;46736;41.654;-8.438;2022-07-23T07:02:37;5.70;;;5.07;;
60885;SDS011;46736;41.654;-8.438;2022-07-23T07:04:39;6.47;;;5.88;;
60885;SDS011;46736;41.654;-8.438;2022-07-23T07:06:40;7.10;;;5.63;;
60885;SDS011;46736;41.654;-8.438;2022-07-23T07:08:41;11.32;;;7.00;;
60885;SDS011;46736;41.654;-8.438;2022-07-23T07:10:43;6.35;;;5.72;;
60885;SDS011;46736;41.654;-8.438;2022-07-23T07:12:44;5.05;;;4.65;;
60885;SDS011;46736;41.654;-8.438;2022-07-23T07:14:44;5.97;;;5.40;;
60885;SDS011;46736;41.654;-8.438;2022-07-23T07:18:56;7.07;;;5.95;;
60885;SDS011;46736;41.654;-8.438;2022-07-23T07:20:57;6.97;;;6.38;;
60885;SDS011;46736;41.654;-8.438;2022-07-23T07:25:22;7.03;;;6.30;;
60885;SDS011;46736;41.654;-8.438;2022-07-23T07:27:22;13.05;;;6.50;;
60885;SDS011;46736;41.654;-8.438;2022-07-23T07:29:23;6.65;;;6.00;;
60885;SDS011;46736;41.654;-8.438;2022-07-23T07:31:24;6.10;;;5.60;;
60885;SDS011;46736;41.654;-8.438;2022-07-23T07:33:25;6.13;;;5.45;;
60885;SDS011;46736;41.654;-8.438;2022-07-23T07:35:26;9.15;;;5.63;;
60885;SDS011;46736;41.654;-8.438;2022-07-23T07:37:27;6.25;;;5.32;;
60885;SDS011;46736;41.654;-8.438;2022-07-23T07:39:28;8.07;;;6.15;;
60885;SDS011;46736;41.654;-8.438;2022-07-23T07:41:29;5.75;;;5.20;;
60885;SDS011;46736;41.654;-8.438;2022-07-23T07:47:57;6.07;;;5.25;;
60885;SDS011;46736;41.654;-8.438;2022-07-23T07:53:12;6.53;;;5.10;;
60885;SDS011;46736;41.654;-8.438;2022-07-23T07:55:13;9.55;;;4.90;;
60885;SDS011;46736;41.654;-8.438;2022-07-23T07:57:14;11.73;;;5.03;;
60885;SDS011;46736;41.654;-8.438;2022-07-23T07:59:16;5.40;;;4.15;;
60885;SDS011;46736;41.654;-8.438;2022-07-23T08:01:17;5.72;;;4.65;;
60885;SDS011;46736;41.654;-8.438;2022-07-23T08:05:31;7.10;;;3.90;;
60885;SDS011;46736;41.654;-8.438;2022-07-23T08:07:32;3.25;;;3.00;;
60885;SDS011;46736;41.654;-8.438;2022-07-23T08:09:33;3.22;;;2.88;;
60885;SDS011;46736;41.654;-8.438;2022-07-23T08:11:36;3.55;;;3.03;;
60885;SDS011;46736;41.654;-8.438;2022-07-23T08:13:37;3.80;;;3.45;;
60885;SDS011;46736;41.654;-8.438;2022-07-23T08:15:38;4.22;;;2.72;;
60885;SDS011;46736;41.654;-8.438;2022-07-23T08:17:39;3.03;;;2.83;;
60885;SDS011;46736;41.654;-8.438;2022-07-23T08:19:41;3.15;;;2.95;;
60885;SDS011;46736;41.654;-8.438;2022-07-23T08:24:07;2.90;;;2.50;;
60885;SDS011;46736;41.654;-8.438;2022-07-23T08:26:07;2.63;;;2.42;;
60885;SDS011;46736;41.654;-8.438;2022-07-23T08:28:09;4.25;;;2.90;;
60885;SDS011;46736;41.654;-8.438;2022-07-23T08:30:11;3.83;;;3.38;;
60885;SDS011;46736;41.654;-8.438;2022-07-23T08:32:12;2.80;;;2.60;;
60885;SDS011;46736;41.654;-8.438;2022-07-23T08:34:12;4.60;;;2.97;;
60885;SDS011;46736;41.654;-8.438;2022-07-23T08:36:13;3.15;;;2.85;;
60885;SDS011;46736;41.654;-8.438;2022-07-23T08:38:15;4.07;;;2.45;;
60885;SDS011;46736;41.654;-8.438;2022-07-23T08:40:16;6.93;;;4.13;;
60885;SDS011;46736;41.654;-8.438;2022-07-23T08:42:18;4.53;;;3.03;;
60885;SDS011;46736;41.654;-8.438;2022-07-23T08:44:19;3.05;;;2.85;;
60885;SDS011;46736;41.654;-8.438;2022-07-23T08:46:21;2.72;;;2.53;;
60885;SDS011;46736;41.654;-8.438;2022-07-23T08:48:24;4.95;;;2.08;;
60885;SDS011;46736;41.654;-8.438;2022-07-23T08:52:27;4.50;;;4.03;;
60885;SDS011;46736;41.654;-8.438;2022-07-23T08:54:29;16.45;;;3.53;;
60885;SDS011;46736;41.654;-8.438;2022-07-23T08:56:30;2.55;;;2.35;;
60885;SDS011;46736;41.654;-8.438;2022-07-23T08:58:31;3.63;;;3.28;;
60885;SDS011;46736;41.654;-8.438;2022-07-23T09:00:32;16.40;;;2.20;;
60885;SDS011;46736;41.654;-8.438;2022-07-23T09:02:41;3.65;;;2.88;;
60885;SDS011;46736;41.654;-8.438;2022-07-23T09:04:42;2.90;;;2.78;;
60885;SDS011;46736;41.654;-8.438;2022-07-23T09:06:43;4.93;;;2.90;;
60885;SDS011;46736;41.654;-8.438;2022-07-23T09:08:45;4.35;;;3.17;;
60885;SDS011;46736;41.654;-8.438;2022-07-23T09:15:42;4.05;;;3.65;;
60885;SDS011;46736;41.654;-8.438;2022-07-23T09:20:14;3.67;;;3.38;;
60885;SDS011;46736;41.654;-8.438;2022-07-23T09:24:26;3.28;;;2.83;;
60885;SDS011;46736;41.654;-8.438;2022-07-23T09:31:43;4.47;;;4.07;;
60885;SDS011;46736;41.654;-8.438;2022-07-23T09:34:29;3.35;;;3.10;;
60885;SDS011;46736;41.654;-8.438;2022-07-23T09:36:36;3.65;;;3.35;;
60885;SDS011;46736;41.654;-8.438;2022-07-23T09:38:47;4.18;;;3.83;;
60885;SDS011;46736;41.654;-8.438;2022-07-23T09:45:44;3.95;;;3.65;;
60885;SDS011;46736;41.654;-8.438;2022-07-23T09:47:44;9.15;;;3.53;;
60885;SDS011;46736;41.654;-8.438;2022-07-23T09:52:56;4.40;;;4.00;;
60885;SDS011;46736;41.654;-8.438;2022-07-23T09:58:30;4.32;;;2.95;;
60885;SDS011;46736;41.654;-8.438;2022-07-23T10:00:31;9.35;;;3.42;;
60885;SDS011;46736;41.654;-8.438;2022-07-23T10:02:33;3.80;;;3.50;;
60885;SDS011;46736;41.654;-8.438;2022-07-23T10:10:32;3.30;;;3.00;;
60885;SDS011;46736;41.654;-8.438;2022-07-23T10:13:26;3.45;;;2.75;;
60885;SDS011;46736;41.654;-8.438;2022-07-23T10:15:58;2.35;;;2.25;;
60885;SDS011;46736;41.654;-8.438;2022-07-23T10:17:59;2.80;;;2.45;;
60885;SDS011;46736;41.654;-8.438;2022-07-23T10:19:59;3.45;;;2.88;;
60885;SDS011;46736;41.654;-8.438;2022-07-23T10:22:02;2.83;;;2.63;;
60885;SDS011;46736;41.654;-8.438;2022-07-23T10:24:10;2.65;;;2.40;;
60885;SDS011;46736;41.654;-8.438;2022-07-23T10:26:24;3.08;;;2.88;;
60885;SDS011;46736;41.654;-8.438;2022-07-23T10:31:01;3.35;;;2.97;;
60885;SDS011;46736;41.654;-8.438;2022-07-23T10:39:39;4.35;;;3.67;;
60885;SDS011;46736;41.654;-8.438;2022-07-23T10:41:40;3.85;;;3.55;;
60885;SDS011;46736;41.654;-8.438;2022-07-23T10:55:42;4.00;;;3.58;;
60885;SDS011;46736;41.654;-8.438;2022-07-23T10:57:47;5.82;;;3.15;;
60885;SDS011;46736;41.654;-8.438;2022-07-23T11:00:23;3.70;;;3.40;;
60885;SDS011;46736;41.654;-8.438;2022-07-23T11:02:29;6.63;;;3.28;;
60885;SDS011;46736;41.654;-8.438;2022-07-23T11:11:26;5.38;;;4.05;;
60885;SDS011;46736;41.654;-8.438;2022-07-23T11:13:32;4.85;;;4.35;;
60885;SDS011;46736;41.654;-8.438;2022-07-23T11:16:03;27.35;;;7.03;;
60885;SDS011;46736;41.654;-8.438;2022-07-23T11:20:16;3.88;;;3.53;;
60885;SDS011;46736;41.654;-8.438;2022-07-23T11:22:33;4.00;;;3.63;;
60885;SDS011;46736;41.654;-8.438;2022-07-23T11:24:36;12.13;;;4.00;;
60885;SDS011;46736;41.654;-8.438;2022-07-23T11:40:34;4.25;;;3.95;;
60885;SDS011;46736;41.654;-8.438;2022-07-23T11:42:36;4.07;;;3.75;;
60885;SDS011;46736;41.654;-8.438;2022-07-23T11:47:42;5.20;;;4.70;;
60885;SDS011;46736;41.654;-8.438;2022-07-23T11:52:25;6.78;;;6.18;;
60885;SDS011;46736;41.654;-8.438;2022-07-23T11:57:29;4.63;;;3.88;;
60885;SDS011;46736;41.654;-8.438;2022-07-23T11:59:32;4.88;;;4.47;;
60885;SDS011;46736;41.654;-8.438;2022-07-23T12:01:34;5.97;;;5.47;;
60885;SDS011;46736;41.654;-8.438;2022-07-23T12:03:34;5.93;;;5.00;;
60885;SDS011;46736;41.654;-8.438;2022-07-23T12:05:37;7.65;;;6.35;;
60885;SDS011;46736;41.654;-8.438;2022-07-23T12:07:40;12.23;;;6.28;;
60885;SDS011;46736;41.654;-8.438;2022-07-23T12:09:44;7.72;;;4.95;;
60885;SDS011;46736;41.654;-8.438;2022-07-23T12:14:01;7.32;;;6.53;;
60885;SDS011;46736;41.654;-8.438;2022-07-23T12:18:37;5.82;;;4.72;;
60885;SDS011;46736;41.654;-8.438;2022-07-23T12:20:40;8.15;;;5.60;;
60885;SDS011;46736;41.654;-8.438;2022-07-23T12:22:43;7.20;;;5.90;;
60885;SDS011;46736;41.654;-8.438;2022-07-23T12:29:14;6.10;;;5.70;;
60885;SDS011;46736;41.654;-8.438;2022-07-23T12:31:14;6.57;;;5.93;;
60885;SDS011;46736;41.654;-8.438;2022-07-23T12:33:22;5.22;;;4.75;;
60885;SDS011;46736;41.654;-8.438;2022-07-23T12:37:59;8.15;;;6.30;;
60885;SDS011;46736;41.654;-8.438;2022-07-23T12:42:43;7.63;;;6.35;;
60885;SDS011;46736;41.654;-8.438;2022-07-23T12:47:09;6.40;;;4.60;;
60885;SDS011;46736;41.654;-8.438;2022-07-23T12:49:10;5.43;;;5.03;;
60885;SDS011;46736;41.654;-8.438;2022-07-23T12:51:14;9.02;;;5.35;;
60885;SDS011;46736;41.654;-8.438;2022-07-23T13:08:59;8.52;;;5.30;;
60885;SDS011;46736;41.654;-8.438;2022-07-23T13:13:38;7.28;;;5.55;;
60885;SDS011;46736;41.654;-8.438;2022-07-23T13:15:48;7.82;;;5.45;;
60885;SDS011;46736;41.654;-8.438;2022-07-23T13:17:54;7.50;;;5.65;;
60885;SDS011;46736;41.654;-8.438;2022-07-23T13:19:56;7.90;;;5.55;;
60885;SDS011;46736;41.654;-8.438;2022-07-23T13:21:57;9.43;;;6.60;;
60885;SDS011;46736;41.654;-8.438;2022-07-23T13:27:05;9.68;;;6.78;;
60885;SDS011;46736;41.654;-8.438;2022-07-23T13:31:41;6.82;;;6.22;;
60885;SDS011;46736;41.654;-8.438;2022-07-23T13:36:29;9.80;;;6.55;;
60885;SDS011;46736;41.654;-8.438;2022-07-23T13:38:29;7.65;;;6.05;;
60885;SDS011;46736;41.654;-8.438;2022-07-23T13:43:03;8.20;;;7.47;;
60885;SDS011;46736;41.654;-8.438;2022-07-23T13:45:06;7.80;;;6.47;;
60885;SDS011;46736;41.654;-8.438;2022-07-23T13:47:07;9.43;;;8.55;;
60885;SDS011;46736;41.654;-8.438;2022-07-23T13:49:08;10.25;;;7.03;;
60885;SDS011;46736;41.654;-8.438;2022-07-23T13:51:09;7.82;;;7.05;;
60885;SDS011;46736;41.654;-8.438;2022-07-23T13:53:14;9.95;;;7.55;;
60885;SDS011;46736;41.654;-8.438;2022-07-23T13:55:18;7.78;;;7.05;;
60885;SDS011;46736;41.654;-8.438;2022-07-23T13:57:19;9.48;;;8.45;;
60885;SDS011;46736;41.654;-8.438;2022-07-23T13:59:20;12.27;;;8.52;;
60885;SDS011;46736;41.654;-8.438;2022-07-23T14:01:25;7.28;;;6.78;;
60885;SDS011;46736;41.654;-8.438;2022-07-23T14:03:26;8.60;;;7.80;;
60885;SDS011;46736;41.654;-8.438;2022-07-23T14:08:18;8.93;;;8.23;;
60885;SDS011;46736;41.654;-8.438;2022-07-23T14:10:20;7.63;;;7.13;;
60885;SDS011;46736;41.654;-8.438;2022-07-23T14:12:23;8.10;;;7.30;;
60885;SDS011;46736;41.654;-8.438;2022-07-23T14:14:23;7.95;;;6.63;;
60885;SDS011;46736;41.654;-8.438;2022-07-23T14:18:28;7.05;;;6.35;;
60885;SDS011;46736;41.654;-8.438;2022-07-23T14:20:28;9.38;;;7.47;;
60885;SDS011;46736;41.654;-8.438;2022-07-23T14:22:29;5.65;;;5.25;;
60885;SDS011;46736;41.654;-8.438;2022-07-23T14:24:30;11.05;;;6.53;;
60885;SDS011;46736;41.654;-8.438;2022-07-23T14:26:31;7.50;;;6.78;;
60885;SDS011;46736;41.654;-8.438;2022-07-23T14:28:33;6.10;;;5.60;;
60885;SDS011;46736;41.654;-8.438;2022-07-23T14:30:34;9.38;;;7.63;;
60885;SDS011;46736;41.654;-8.438;2022-07-23T14:32:35;7.22;;;5.68;;
60885;SDS011;46736;41.654;-8.438;2022-07-23T14:34:36;5.32;;;4.82;;
60885;SDS011;46736;41.654;-8.438;2022-07-23T14:36:37;9.65;;;6.43;;
60885;SDS011;46736;41.654;-8.438;2022-07-23T14:38:50;7.88;;;7.15;;
60885;SDS011;46736;41.654;-8.438;2022-07-23T14:40:51;6.22;;;5.85;;
60885;SDS011;46736;41.654;-8.438;2022-07-23T14:42:55;5.53;;;5.03;;
60885;SDS011;46736;41.654;-8.438;2022-07-23T14:44:56;7.68;;;5.97;;
60885;SDS011;46736;41.654;-8.438;2022-07-23T14:46:56;7.60;;;5.45;;
60885;SDS011;46736;41.654;-8.438;2022-07-23T14:48:57;9.82;;;6.57;;
60885;SDS011;46736;41.654;-8.438;2022-07-23T14:56:01;5.85;;;5.25;;
60885;SDS011;46736;41.654;-8.438;2022-07-23T14:58:02;5.25;;;4.38;;
60885;SDS011;46736;41.654;-8.438;2022-07-23T15:00:03;5.80;;;5.35;;
60885;SDS011;46736;41.654;-8.438;2022-07-23T15:02:06;6.10;;;5.55;;
60885;SDS011;46736;41.654;-8.438;2022-07-23T15:04:07;5.43;;;4.45;;
60885;SDS011;46736;41.654;-8.438;2022-07-23T15:06:08;5.28;;;4.75;;
60885;SDS011;46736;41.654;-8.438;2022-07-23T15:08:09;5.93;;;5.32;;
60885;SDS011;46736;41.654;-8.438;2022-07-23T15:10:09;6.32;;;5.00;;
60885;SDS011;46736;41.654;-8.438;2022-07-23T15:12:12;5.32;;;4.90;;
60885;SDS011;46736;41.654;-8.438;2022-07-23T15:14:13;6.72;;;6.13;;
60885;SDS011;46736;41.654;-8.438;2022-07-23T15:16:14;5.65;;;5.28;;
60885;SDS011;46736;41.654;-8.438;2022-07-23T15:18:17;5.25;;;4.72;;
60885;SDS011;46736;41.654;-8.438;2022-07-23T15:20:17;5.82;;;5.43;;
60885;SDS011;46736;41.654;-8.438;2022-07-23T15:22:20;6.28;;;4.78;;
60885;SDS011;46736;41.654;-8.438;2022-07-23T15:24:22;13.30;;;4.78;;
60885;SDS011;46736;41.654;-8.438;2022-07-23T15:26:26;6.35;;;5.75;;
60885;SDS011;46736;41.654;-8.438;2022-07-23T15:28:27;5.03;;;4.20;;
60885;SDS011;46736;41.654;-8.438;2022-07-23T15:30:28;5.55;;;5.05;;
60885;SDS011;46736;41.654;-8.438;2022-07-23T15:32:29;6.30;;;5.80;;
60885;SDS011;46736;41.654;-8.438;2022-07-23T15:39:35;6.63;;;4.43;;
60885;SDS011;46736;41.654;-8.438;2022-07-23T15:41:35;5.72;;;4.82;;
60885;SDS011;46736;41.654;-8.438;2022-07-23T15:43:36;6.43;;;5.82;;
60885;SDS011;46736;41.654;-8.438;2022-07-23T15:45:37;6.70;;;5.60;;
60885;SDS011;46736;41.654;-8.438;2022-07-23T15:47:39;5.18;;;4.55;;
60885;SDS011;46736;41.654;-8.438;2022-07-23T15:49:41;9.13;;;5.20;;
60885;SDS011;46736;41.654;-8.438;2022-07-23T15:51:43;8.73;;;5.38;;
60885;SDS011;46736;41.654;-8.438;2022-07-23T15:53:45;6.38;;;5.78;;
60885;SDS011;46736;41.654;-8.438;2022-07-23T15:55:46;5.40;;;4.80;;
60885;SDS011;46736;41.654;-8.438;2022-07-23T15:57:47;4.47;;;3.63;;
60885;SDS011;46736;41.654;-8.438;2022-07-23T15:59:47;5.68;;;5.10;;